Time;durP1;ratioP1;P1;durP2;ratioP2;P2;SDS_P1;SDS_P2;PMS_P1;PMS_P2;Temp;Humidity;BMP_temperature;BMP_pressure;BME280_temperature;BME280_humidity;BME280_pressure;Samples;Min_cycle;Max_cycle;Signal;HPM_P1;HPM_P2
2023/04/10 00:02:22;;;;;;;;;;;;;;;4.72;55.85;93357.28;2057884;69;20097;-78
2023/04/10 00:04:48;;;;;;;;;;;;;;;4.73;56.66;93348.38;2057775;69;20449;-80
2023/04/10 00:07:14;;;;;;;;;;;;;;;4.82;55.39;93352.69;2058025;69;20505;-80
2023/04/10 00:09:40;;;;;;;;;;;;;;;4.85;55.24;93346.69;2058126;69;20141;-80
2023/04/10 00:12:06;;;;;;;;;;;;;;;4.74;56.61;93340.75;2057495;69;20060;-79
2023/04/10 00:14:31;;;;;;;;;;;;;;;4.71;56.85;93339.81;2057986;69;20505;-80
2023/04/10 00:16:57;;;;;;;;;;;;;;;4.72;56.41;93334.97;2057608;69;20136;-78
2023/04/10 00:19:22;;;;;;;;;;;;;;;4.63;55.14;93332.75;2054486;69;20050;-78
2023/04/10 00:21:48;;;;;;;;;;;;;;;4.62;55.54;93328.47;2057179;69;20486;-77
2023/04/10 00:24:13;;;;;;;;;;;;;;;4.56;55.88;93339.81;2057360;69;20066;-75
2023/04/10 00:26:39;;;;;;;;;;;;;;;4.53;55.58;93335.34;2057930;69;20145;-79
2023/04/10 00:29:08;;;;;;;;;;;;;;;4.35;57.23;93334.38;2057115;69;20115;-78
2023/04/10 00:31:33;;;;;;;;;;;;;;;4.58;56.56;93323.25;2057754;69;20078;-78
2023/04/10 00:33:59;;;;;;;;;;;;;;;4.66;56.79;93323.28;2054175;69;20382;-78
2023/04/10 00:36:25;;;;;;;;;;;;;;;4.48;56.44;93328.66;2057479;69;20480;-79
2023/04/10 00:38:52;;;;;;;;;;;;;;;4.39;56.85;93339.59;2054568;69;20081;-78
2023/04/10 00:41:22;;;;;;;;;;;;;;;4.42;56.80;93333.66;2058735;69;20053;-76
2023/04/10 00:43:49;;;;;;;;;;;;;;;4.19;56.97;93330.84;2058758;69;20140;-76
2023/04/10 00:46:15;;;;;;;;;;;;;;;4.20;57.12;93328.81;2058552;69;20069;-76
2023/04/10 00:52:09;;;;;;;;;;;;;;;4.29;56.77;93323.44;2058158;69;20045;-73
2023/04/10 00:54:35;;;;;;;;;;;;;;;4.14;58.09;93328.97;2054967;69;20117;-72
2023/04/10 00:57:02;;;;;;;;;;;;;;;4.20;58.12;93320.44;2058557;69;20062;-77
2023/04/10 00:59:28;;;;;;;;;;;;;;;4.19;57.54;93330.09;2058173;69;20120;-74
2023/04/10 01:01:54;;;;;;;;;;;;;;;4.18;58.34;93321.00;2058290;69;20050;-77
2023/04/10 01:04:20;;;;;;;;;;;;;;;4.21;57.63;93321.91;2054973;69;20378;-76
2023/04/10 01:06:46;;;;;;;;;;;;;;;4.04;57.40;93319.69;2054844;69;20484;-78
2023/04/10 01:09:11;;;;;;;;;;;;;;;3.91;58.67;93323.34;2058316;69;20457;-74
2023/04/10 01:11:57;;;;;;;;;;;;;;;3.90;57.41;93321.88;2058270;69;20046;-76
2023/04/10 01:14:22;;;;;;;;;;;;;;;3.98;56.91;93321.88;2058245;69;20050;-77
2023/04/10 01:17:16;;;;;;;;;;;;;;;4.11;56.39;93321.72;2058210;69;20485;-77
2023/04/10 01:19:59;;;;;;;;;;;;;;;3.80;57.77;93327.22;2057952;69;20089;-77
2023/04/10 01:22:34;;;;;;;;;;;;;;;3.89;58.63;93325.19;2058311;69;20057;-78
2023/04/10 01:25:12;;;;;;;;;;;;;;;3.82;57.60;93321.09;2058177;69;20116;-77
2023/04/10 01:31:10;;;;;;;;;;;;;;;3.71;57.75;93319.41;2051530;69;20057;-77
2023/04/10 01:33:46;;;;;;;;;;;;;;;3.64;58.29;93314.53;2055067;69;20251;-77
2023/04/10 01:36:17;;;;;;;;;;;;;;;3.67;57.57;93315.47;2055153;69;20423;-77
2023/04/10 01:38:43;;;;;;;;;;;;;;;3.81;57.36;93306.41;2058240;69;20149;-77
2023/04/10 01:41:09;;;;;;;;;;;;;;;3.90;57.42;93309.97;2054882;69;20209;-77
2023/04/10 01:43:39;;;;;;;;;;;;;;;3.78;58.31;93307.53;2058125;69;20153;-75
2023/04/10 01:46:06;;;;;;;;;;;;;;;3.87;57.13;93306.25;2055077;69;20191;-77
2023/04/10 01:52:00;;;;;;;;;;;;;;;3.59;58.96;93293.16;2057817;69;20430;-77
2023/04/10 01:57:59;;;;;;;;;;;;;;;3.38;59.33;93293.25;2057811;69;20190;-76
2023/04/10 02:00:28;;;;;;;;;;;;;;;3.40;59.92;93292.72;2054586;69;20116;-77
2023/04/10 02:02:57;;;;;;;;;;;;;;;3.46;59.73;93296.81;2054787;69;20576;-77
2023/04/10 02:05:28;;;;;;;;;;;;;;;3.44;59.35;93299.41;2058037;69;20191;-76
2023/04/10 02:07:53;;;;;;;;;;;;;;;3.33;59.68;93291.38;2058359;69;20065;-75
2023/04/10 02:10:38;;;;;;;;;;;;;;;3.41;58.60;93288.63;2054874;69;20061;-78
2023/04/10 02:13:10;;;;;;;;;;;;;;;3.28;59.55;93295.81;2055009;69;20046;-77
2023/04/10 02:15:39;;;;;;;;;;;;;;;3.22;60.15;93286.88;2055151;69;20042;-76
2023/04/10 02:18:07;;;;;;;;;;;;;;;3.30;59.21;93287.66;2058557;69;20092;-77
2023/04/10 02:20:33;;;;;;;;;;;;;;;3.28;59.14;93283.94;2055076;69;20600;-78
2023/04/10 02:23:02;;;;;;;;;;;;;;;3.09;61.49;93294.59;2056216;69;20054;-75
2023/04/10 02:25:32;;;;;;;;;;;;;;;3.26;59.34;93292.84;2059156;69;20441;-73
2023/04/10 02:28:05;;;;;;;;;;;;;;;3.17;60.00;93293.34;2058621;69;20441;-76
2023/04/10 02:30:38;;;;;;;;;;;;;;;3.04;60.13;93285.84;2057609;69;20471;-78
2023/04/10 02:33:04;;;;;;;;;;;;;;;2.99;59.87;93288.78;2058099;69;20085;-76
2023/04/10 02:35:30;;;;;;;;;;;;;;;3.09;60.03;93287.00;2054427;69;20146;-75
2023/04/10 02:37:56;;;;;;;;;;;;;;;3.26;59.36;93292.09;2051790;69;20108;-71
2023/04/10 02:43:51;;;;;;;;;;;;;;;3.10;59.45;93296.81;2057927;69;20120;-78
2023/04/10 02:46:23;;;;;;;;;;;;;;;3.22;58.94;93298.00;2054467;69;20066;-77
2023/04/10 02:48:51;;;;;;;;;;;;;;;3.11;58.77;93311.47;2054323;69;20486;-76
2023/04/10 02:51:17;;;;;;;;;;;;;;;3.08;59.56;93305.00;2054920;69;20492;-77
2023/04/10 02:53:43;;;;;;;;;;;;;;;3.05;59.58;93298.47;2054872;69;20120;-74
2023/04/10 02:56:14;;;;;;;;;;;;;;;3.14;59.06;93294.44;2054646;69;20050;-76
2023/04/10 02:58:40;;;;;;;;;;;;;;;3.17;58.43;93303.75;2054130;69;20058;-76
2023/04/10 03:01:06;;;;;;;;;;;;;;;3.13;58.95;93295.00;2054537;69;20060;-77
2023/04/10 03:03:40;;;;;;;;;;;;;;;3.00;60.29;93299.38;2052181;69;20054;-77
2023/04/10 03:06:06;;;;;;;;;;;;;;;2.98;59.39;93298.44;2054585;69;20056;-78
2023/04/10 03:08:32;;;;;;;;;;;;;;;2.99;60.20;93292.31;2054767;69;20089;-75
2023/04/10 03:10:57;;;;;;;;;;;;;;;2.96;59.69;93293.41;2054729;69;20078;-76
2023/04/10 03:13:24;;;;;;;;;;;;;;;2.87;59.93;93295.94;2054792;69;20177;-76
2023/04/10 03:15:49;;;;;;;;;;;;;;;2.84;58.97;93300.59;2057608;69;20145;-76
2023/04/10 03:18:15;;;;;;;;;;;;;;;2.83;60.20;93304.63;2053817;69;20490;-77
2023/04/10 03:24:11;;;;;;;;;;;;;;;2.80;58.69;93309.25;2057716;69;20046;-78
2023/04/10 03:26:36;;;;;;;;;;;;;;;2.75;60.00;93303.84;2054370;69;20078;-78
2023/04/10 03:29:02;;;;;;;;;;;;;;;2.69;61.15;93300.47;2057671;69;20058;-77
2023/04/10 03:31:28;;;;;;;;;;;;;;;2.73;60.10;93301.59;2051324;70;20052;-76
2023/04/10 03:33:56;;;;;;;;;;;;;;;2.67;59.74;93298.22;2051158;69;20059;-75
2023/04/10 03:36:21;;;;;;;;;;;;;;;2.74;59.78;93296.78;2051106;70;20060;-75
2023/04/10 03:38:47;;;;;;;;;;;;;;;2.68;60.17;93291.38;2038380;70;20059;-71
2023/04/10 03:41:12;;;;;;;;;;;;;;;2.72;60.57;93299.38;2038529;70;20428;-71
2023/04/10 03:43:39;;;;;;;;;;;;;;;2.57;60.47;93294.47;2051043;70;20063;-77
2023/04/10 03:46:06;;;;;;;;;;;;;;;2.53;60.17;93292.00;2051003;69;20489;-76
2023/04/10 03:48:34;;;;;;;;;;;;;;;2.59;60.34;93293.91;2051287;70;20503;-76
2023/04/10 03:50:59;;;;;;;;;;;;;;;2.67;59.57;93289.16;2051347;69;20147;-76
2023/04/10 03:53:25;;;;;;;;;;;;;;;2.51;59.04;93289.03;2050973;70;20092;-77
2023/04/10 03:55:53;;;;;;;;;;;;;;;2.50;60.03;93295.88;2051507;70;20060;-77
2023/04/10 03:58:21;;;;;;;;;;;;;;;2.66;58.25;93302.31;2051514;69;20051;-73
2023/04/10 04:00:47;;;;;;;;;;;;;;;2.57;60.28;93300.00;2048644;70;20056;-76
2023/04/10 04:03:22;;;;;;;;;;;;;;;2.54;59.65;93295.53;2051710;70;20095;-77
2023/04/10 04:06:02;;;;;;;;;;;;;;;2.54;60.04;93290.72;2051418;70;20519;-77
2023/04/10 04:08:46;;;;;;;;;;;;;;;2.63;58.44;93286.72;2038667;70;20051;-78
2023/04/10 04:11:18;;;;;;;;;;;;;;;2.50;59.60;93295.88;2051602;70;20056;-76
2023/04/10 04:14:06;;;;;;;;;;;;;;;2.38;60.19;93291.88;2053212;70;20051;-78
2023/04/10 04:17:01;;;;;;;;;;;;;;;2.40;59.54;93291.34;2052105;70;20172;-78
2023/04/10 04:19:45;;;;;;;;;;;;;;;2.25;59.74;93303.09;2038820;70;20530;-77
2023/04/10 04:22:20;;;;;;;;;;;;;;;2.24;60.64;93298.78;2051898;70;20062;-77
2023/04/10 04:25:09;;;;;;;;;;;;;;;2.25;59.28;93300.31;2046606;69;20556;-76
2023/04/10 04:27:52;;;;;;;;;;;;;;;2.25;59.38;93303.09;2039131;70;20488;-78
2023/04/10 04:30:37;;;;;;;;;;;;;;;2.33;58.69;93301.09;2046118;69;20133;-77
2023/04/10 04:33:14;;;;;;;;;;;;;;;2.16;60.22;93298.75;2055032;69;20051;-77
2023/04/10 04:35:48;;;;;;;;;;;;;;;2.21;61.35;93308.22;2052518;69;20406;-78
2023/04/10 04:38:34;;;;;;;;;;;;;;;2.16;60.72;93309.13;2052634;69;20053;-77
2023/04/10 04:41:26;;;;;;;;;;;;;;;2.21;60.33;93311.75;2054041;69;20428;-78
2023/04/10 04:44:14;;;;;;;;;;;;;;;2.12;60.24;93311.47;2058304;69;20525;-74
2023/04/10 04:47:00;;;;;;;;;;;;;;;2.01;59.48;93318.03;2056346;69;20053;-74
2023/04/10 04:53:12;;;;;;;;;;;;;;;2.08;59.17;93327.72;2058258;69;20109;-75
2023/04/10 04:55:55;;;;;;;;;;;;;;;2.08;60.94;93322.19;2054973;69;20061;-74
2023/04/10 04:58:37;;;;;;;;;;;;;;;2.10;60.98;93314.03;2055010;69;20050;-76
2023/04/10 05:01:11;;;;;;;;;;;;;;;2.03;61.16;93310.66;2054940;69;20476;-73
2023/04/10 05:04:03;;;;;;;;;;;;;;;2.04;61.45;93314.91;2055315;69;20399;-77
2023/04/10 05:06:44;;;;;;;;;;;;;;;2.04;61.45;93314.19;2055309;69;20120;-73
2023/04/10 05:09:15;;;;;;;;;;;;;;;1.98;61.66;93314.31;2054866;69;20053;-73
2023/04/10 05:11:59;;;;;;;;;;;;;;;2.02;61.62;93317.50;2054866;69;20063;-73
2023/04/10 05:14:45;;;;;;;;;;;;;;;2.04;62.32;93322.50;2054868;69;20042;-78
2023/04/10 05:17:30;;;;;;;;;;;;;;;2.10;61.34;93322.38;2054869;69;20108;-77
2023/04/10 05:20:28;;;;;;;;;;;;;;;2.18;60.63;93325.97;2051918;69;20442;-77
2023/04/10 05:23:12;;;;;;;;;;;;;;;2.11;61.75;93321.09;2058437;69;20189;-77
2023/04/10 05:26:06;;;;;;;;;;;;;;;2.15;61.51;93330.56;2056437;69;20057;-74
2023/04/10 05:28:55;;;;;;;;;;;;;;;2.11;61.44;93330.19;2054581;69;20512;-73
2023/04/10 05:31:29;;;;;;;;;;;;;;;2.07;60.19;93324.22;2058076;69;20054;-72
2023/04/10 05:34:16;;;;;;;;;;;;;;;2.21;59.63;93320.09;2058145;69;20599;-73
2023/04/10 05:36:59;;;;;;;;;;;;;;;1.81;63.43;93335.41;2058344;69;20049;-72
2023/04/10 05:39:47;;;;;;;;;;;;;;;2.11;62.10;93338.53;2051536;69;20510;-73
2023/04/10 05:42:26;;;;;;;;;;;;;;;2.05;61.91;93340.66;2058179;69;20071;-76
2023/04/10 05:45:04;;;;;;;;;;;;;;;2.06;62.26;93344.91;2054793;69;20050;-72
2023/04/10 05:47:48;;;;;;;;;;;;;;;2.21;61.93;93342.31;2058356;69;20425;-75
2023/04/10 05:50:23;;;;;;;;;;;;;;;2.14;60.84;93345.75;2058399;69;20141;-75
2023/04/10 05:53:13;;;;;;;;;;;;;;;2.21;62.19;93347.13;2056562;69;20069;-73
2023/04/10 05:56:08;;;;;;;;;;;;;;;2.15;62.73;93352.06;2048623;69;20058;-75
2023/04/10 05:59:03;;;;;;;;;;;;;;;2.20;61.75;93357.50;2055352;69;20042;-72
2023/04/10 06:01:47;;;;;;;;;;;;;;;2.20;62.04;93357.50;2061579;69;20104;-75
2023/04/10 06:04:13;;;;;;;;;;;;;;;1.97;62.79;93360.03;2055578;69;20078;-76
2023/04/10 06:06:39;;;;;;;;;;;;;;;2.15;62.46;93352.78;2054813;69;20441;-72
2023/04/10 06:09:05;;;;;;;;;;;;;;;2.14;62.85;93354.09;2054610;69;20085;-78
2023/04/10 06:11:30;;;;;;;;;;;;;;;2.20;63.18;93359.50;2054556;69;20058;-78
2023/04/10 06:13:57;;;;;;;;;;;;;;;2.32;62.33;93360.00;2054648;69;20085;-78
2023/04/10 06:16:30;;;;;;;;;;;;;;;2.42;61.19;93361.75;2054742;69;20588;-78
2023/04/10 06:18:57;;;;;;;;;;;;;;;2.36;61.61;93360.41;2054780;69;20141;-74
2023/04/10 06:21:22;;;;;;;;;;;;;;;2.39;62.36;93353.78;2054753;69;20050;-77
2023/04/10 06:23:47;;;;;;;;;;;;;;;2.39;62.17;93346.19;2054863;69;20061;-77
2023/04/10 06:26:13;;;;;;;;;;;;;;;2.53;61.35;93344.81;2054949;69;20050;-77
2023/04/10 06:28:38;;;;;;;;;;;;;;;2.50;61.86;93339.59;2054898;69;20062;-78
2023/04/10 06:31:05;;;;;;;;;;;;;;;2.46;61.09;93336.41;2054831;69;20062;-77
2023/04/10 06:33:36;;;;;;;;;;;;;;;2.49;61.57;93340.91;2054707;69;20061;-77
2023/04/10 06:36:04;;;;;;;;;;;;;;;2.63;60.73;93336.00;2054714;69;20116;-79
2023/04/10 06:38:36;;;;;;;;;;;;;;;2.59;61.08;93328.00;2054598;69;20103;-77
2023/04/10 06:41:03;;;;;;;;;;;;;;;2.69;60.64;93331.78;2054671;69;20066;-77
2023/04/10 06:43:30;;;;;;;;;;;;;;;2.67;60.86;93325.28;2058015;69;20090;-78
2023/04/10 06:45:56;;;;;;;;;;;;;;;2.65;60.98;93325.81;2058122;69;20061;-82
2023/04/10 06:51:49;;;;;;;;;;;;;;;3.42;59.80;93318.69;2058014;69;20045;-78
2023/04/10 06:54:15;;;;;;;;;;;;;;;3.72;61.79;93309.75;2057886;69;20077;-74
2023/04/10 06:56:40;;;;;;;;;;;;;;;4.16;60.36;93312.44;2054630;69;20050;-78
2023/04/10 06:59:06;;;;;;;;;;;;;;;4.64;59.81;93307.09;2058003;69;20148;-77
2023/04/10 07:01:31;;;;;;;;;;;;;;;5.03;57.41;93308.56;2057885;69;20104;-77
2023/04/10 07:03:58;;;;;;;;;;;;;;;5.06;57.12;93309.50;2057873;69;20054;-76
2023/04/10 07:06:25;;;;;;;;;;;;;;;5.47;55.05;93305.50;2057775;69;20042;-77
2023/04/10 07:08:50;;;;;;;;;;;;;;;5.91;54.23;93299.56;2058151;69;20054;-77
2023/04/10 07:11:16;;;;;;;;;;;;;;;6.27;52.68;93299.19;2058003;69;20054;-77
2023/04/10 07:13:41;;;;;;;;;;;;;;;6.26;50.96;93297.69;2057953;69;20062;-77
2023/04/10 07:16:09;;;;;;;;;;;;;;;6.65;50.60;93291.84;2057952;69;20086;-72
2023/04/10 07:18:37;;;;;;;;;;;;;;;6.99;50.07;93289.13;2057964;69;20077;-72
2023/04/10 07:21:08;;;;;;;;;;;;;;;7.17;50.13;93291.97;2057971;69;20511;-73
2023/04/10 07:23:34;;;;;;;;;;;;;;;7.11;48.98;93295.00;2057866;69;20050;-73
2023/04/10 07:26:00;;;;;;;;;;;;;;;6.94;48.64;93295.72;2057642;69;20058;-74
2023/04/10 07:28:25;;;;;;;;;;;;;;;7.69;48.84;93284.28;2057892;69;20046;-74
2023/04/10 07:30:51;;;;;;;;;;;;;;;7.83;47.59;93285.44;2057813;69;20078;-73
2023/04/10 07:33:16;;;;;;;;;;;;;;;8.14;46.40;93282.25;2057911;69;20064;-73
2023/04/10 07:35:42;;;;;;;;;;;;;;;8.29;45.27;93284.09;2057936;69;20050;-73
2023/04/10 07:38:07;;;;;;;;;;;;;;;8.61;45.98;93288.69;2057936;69;20046;-72
2023/04/10 07:40:32;;;;;;;;;;;;;;;9.01;44.05;93281.91;2057648;69;20062;-71
2023/04/10 07:42:58;;;;;;;;;;;;;;;9.46;44.60;93282.44;2057850;69;20116;-74
2023/04/10 07:45:24;;;;;;;;;;;;;;;9.55;42.58;93284.53;2057877;69;20187;-78
2023/04/10 07:47:50;;;;;;;;;;;;;;;9.70;42.17;93272.97;2058320;69;20054;-74
2023/04/10 07:50:16;;;;;;;;;;;;;;;9.72;42.34;93272.41;2058274;69;20078;-73
2023/04/10 07:52:41;;;;;;;;;;;;;;;9.98;40.90;93265.84;2058791;69;20124;-74
2023/04/10 07:55:07;;;;;;;;;;;;;;;10.06;41.92;93271.31;2058556;69;20421;-77
2023/04/10 07:57:32;;;;;;;;;;;;;;;10.57;41.29;93266.50;2058763;69;20050;-74
2023/04/10 07:59:58;;;;;;;;;;;;;;;10.84;40.67;93261.34;2058689;69;20577;-75
2023/04/10 08:02:23;;;;;;;;;;;;;;;11.28;39.96;93262.91;2055242;69;20042;-75
2023/04/10 08:04:48;;;;;;;;;;;;;;;11.52;39.03;93258.13;2059536;69;20090;-74
2023/04/10 08:07:14;;;;;;;;;;;;;;;11.71;34.82;93258.00;2061337;69;20076;-76
2023/04/10 08:09:39;;;;;;;;;;;;;;;12.00;36.24;93259.13;2061797;69;20056;-77
2023/04/10 08:12:05;;;;;;;;;;;;;;;12.09;35.72;93255.47;2062318;69;20077;-76
2023/04/10 08:14:30;;;;;;;;;;;;;;;12.45;34.77;93254.94;2060318;69;20086;-77
2023/04/10 08:16:56;;;;;;;;;;;;;;;11.60;34.47;93243.84;2058739;69;20054;-78
2023/04/10 08:19:22;;;;;;;;;;;;;;;12.48;33.99;93244.53;2058801;69;20052;-78
2023/04/10 08:21:47;;;;;;;;;;;;;;;13.24;33.51;93244.22;2058594;69;20080;-78
2023/04/10 08:24:13;;;;;;;;;;;;;;;13.27;32.36;93247.91;2058708;69;20046;-77
2023/04/10 08:26:38;;;;;;;;;;;;;;;12.99;33.58;93250.47;2058591;69;20106;-76
2023/04/10 08:29:05;;;;;;;;;;;;;;;13.22;32.75;93244.84;2058609;69;20039;-76
2023/04/10 08:31:30;;;;;;;;;;;;;;;12.76;30.92;93245.56;2058214;69;20144;-77
2023/04/10 08:33:56;;;;;;;;;;;;;;;13.36;31.23;93235.72;2058371;69;20474;-77
2023/04/10 08:36:22;;;;;;;;;;;;;;;13.86;31.05;93240.75;2058377;69;20050;-77
2023/04/10 08:38:47;;;;;;;;;;;;;;;13.83;31.13;93244.81;2058645;69;20050;-76
2023/04/10 08:41:14;;;;;;;;;;;;;;;13.43;31.40;93240.38;2058180;69;20054;-77
2023/04/10 08:43:39;;;;;;;;;;;;;;;14.13;30.43;93236.59;2058256;69;20145;-77
2023/04/10 08:46:05;;;;;;;;;;;;;;;14.76;30.85;93237.25;2058312;69;20164;-78
2023/04/10 08:48:44;;;;;;;;;;;;;;;15.35;29.67;93223.34;2058402;69;20065;-77
2023/04/10 08:51:12;;;;;;;;;;;;;;;15.21;28.29;93226.19;2058522;69;20061;-75
2023/04/10 08:53:40;;;;;;;;;;;;;;;15.59;29.27;93223.84;2058486;69;20057;-76
2023/04/10 08:56:06;;;;;;;;;;;;;;;15.74;28.15;93219.63;2058463;69;20107;-75
2023/04/10 08:58:32;;;;;;;;;;;;;;;14.11;30.01;93216.66;2058353;69;20054;-77
2023/04/10 09:00:57;;;;;;;;;;;;;;;14.66;30.23;93209.09;2058271;69;20125;-75
2023/04/10 09:03:23;;;;;;;;;;;;;;;16.67;28.07;93208.44;2058465;69;20062;-76
2023/04/10 09:05:48;;;;;;;;;;;;;;;16.55;27.09;93208.63;2058263;69;20050;-78
2023/04/10 09:08:14;;;;;;;;;;;;;;;16.11;26.23;93210.06;2055108;69;20074;-77
2023/04/10 09:10:39;;;;;;;;;;;;;;;15.20;27.34;93202.00;2058335;69;20105;-75
2023/04/10 09:13:05;;;;;;;;;;;;;;;16.31;28.03;93202.53;2058130;69;20164;-78
2023/04/10 09:15:50;;;;;;;;;;;;;;;17.37;28.30;93207.38;2058145;69;20057;-77
2023/04/10 09:18:15;;;;;;;;;;;;;;;17.22;26.34;93200.31;2058220;69;20069;-76
2023/04/10 09:20:41;;;;;;;;;;;;;;;17.24;25.38;93200.41;2058261;69;20054;-77
2023/04/10 09:23:20;;;;;;;;;;;;;;;17.98;24.97;93197.84;2058340;69;20058;-78
2023/04/10 09:25:45;;;;;;;;;;;;;;;17.87;24.53;93195.94;2058278;69;20131;-77
2023/04/10 09:28:11;;;;;;;;;;;;;;;17.98;24.27;93190.03;2054949;69;20053;-77
2023/04/10 09:30:38;;;;;;;;;;;;;;;18.29;23.87;93182.72;2058199;69;20078;-75
2023/04/10 09:33:19;;;;;;;;;;;;;;;18.83;25.14;93185.53;2058193;69;20050;-76
2023/04/10 09:35:45;;;;;;;;;;;;;;;17.50;24.77;93180.91;2058897;69;20110;-77
2023/04/10 09:38:17;;;;;;;;;;;;;;;18.06;24.53;93174.66;2058870;69;20086;-74
2023/04/10 09:40:44;;;;;;;;;;;;;;;19.11;23.60;93174.47;2058280;69;20059;-75
2023/04/10 09:43:21;;;;;;;;;;;;;;;18.11;23.13;93173.44;2058182;69;20058;-75
2023/04/10 09:45:56;;;;;;;;;;;;;;;19.80;22.29;93171.22;2058012;69;20062;-74
2023/04/10 09:48:22;;;;;;;;;;;;;;;19.17;22.70;93161.13;2058332;69;20057;-75
2023/04/10 09:50:48;;;;;;;;;;;;;;;18.54;23.90;93156.63;2058241;69;20089;-76
2023/04/10 09:53:15;;;;;;;;;;;;;;;19.95;22.28;93150.28;2058819;69;20128;-77
2023/04/10 09:55:41;;;;;;;;;;;;;;;18.04;22.49;93152.50;2062061;69;20120;-79
2023/04/10 09:58:07;;;;;;;;;;;;;;;19.04;22.70;93148.53;2058788;69;20481;-77
2023/04/10 10:00:37;;;;;;;;;;;;;;;20.73;21.79;93135.59;2058127;69;20138;-76
2023/04/10 10:03:05;;;;;;;;;;;;;;;19.45;20.97;93137.84;2058323;69;20145;-77
2023/04/10 10:05:31;;;;;;;;;;;;;;;18.40;21.01;93138.97;2058187;69;20478;-74
2023/04/10 10:07:57;;;;;;;;;;;;;;;20.16;20.68;93128.06;2058051;69;20053;-78
2023/04/10 10:10:24;;;;;;;;;;;;;;;19.01;19.71;93118.50;2058111;69;20058;-78
2023/04/10 10:12:53;;;;;;;;;;;;;;;21.27;20.31;93116.41;2057848;69;20145;-77
2023/04/10 10:15:39;;;;;;;;;;;;;;;18.81;18.96;93109.19;2057779;69;20045;-78
2023/04/10 10:18:40;;;;;;;;;;;;;;;22.81;18.65;93106.59;2058028;69;20209;-77
2023/04/10 10:21:07;;;;;;;;;;;;;;;22.75;18.48;93103.59;2047529;70;20089;-78
2023/04/10 10:23:33;;;;;;;;;;;;;;;23.61;17.00;93102.47;2055895;69;20054;-78
2023/04/10 10:25:59;;;;;;;;;;;;;;;22.26;19.45;93093.88;2058180;69;20056;-78
2023/04/10 10:28:26;;;;;;;;;;;;;;;20.60;18.90;93082.28;2058006;69;20418;-78
2023/04/10 10:30:53;;;;;;;;;;;;;;;23.74;18.03;93087.69;2057849;69;20089;-78
2023/04/10 10:33:19;;;;;;;;;;;;;;;23.53;17.03;93080.06;2054659;69;20050;-77
2023/04/10 10:35:45;;;;;;;;;;;;;;;25.50;16.69;93075.84;2057765;69;20046;-76
2023/04/10 10:38:11;;;;;;;;;;;;;;;26.95;14.81;93079.97;2058024;69;20418;-78
2023/04/10 10:40:53;;;;;;;;;;;;;;;24.57;14.69;93062.41;2057981;69;20049;-80
2023/04/10 10:43:34;;;;;;;;;;;;;;;27.27;15.50;93068.59;2058154;69;20054;-79
2023/04/10 10:46:05;;;;;;;;;;;;;;;26.90;14.79;93064.78;2057923;69;20050;-79
2023/04/10 10:48:30;;;;;;;;;;;;;;;27.11;14.68;93054.06;2057989;69;20050;-79
2023/04/10 10:50:57;;;;;;;;;;;;;;;25.98;13.15;93046.03;2058012;69;20100;-77
2023/04/10 10:53:39;;;;;;;;;;;;;;;28.65;12.58;93052.91;2058057;69;20061;-79
2023/04/10 10:56:21;;;;;;;;;;;;;;;29.18;11.93;93040.47;2058004;69;20423;-78
2023/04/10 10:58:49;;;;;;;;;;;;;;;32.29;11.75;93036.84;2057997;69;20129;-79
2023/04/10 11:01:15;;;;;;;;;;;;;;;31.75;11.45;93038.34;2057874;69;20475;-78
2023/04/10 11:03:43;;;;;;;;;;;;;;;31.49;11.45;93025.63;2058081;69;20053;-77
2023/04/10 11:06:11;;;;;;;;;;;;;;;34.69;10.52;93027.72;2054719;69;20455;-79
2023/04/10 11:08:54;;;;;;;;;;;;;;;35.23;10.32;93024.84;2058039;69;20054;-79
2023/04/10 11:11:24;;;;;;;;;;;;;;;33.06;10.00;93019.56;2057757;69;20418;-80
2023/04/10 11:13:55;;;;;;;;;;;;;;;31.62;10.92;93011.63;2058065;69;20054;-79
2023/04/10 11:16:21;;;;;;;;;;;;;;;30.49;11.83;93006.31;2057968;69;20073;-77
2023/04/10 11:18:50;;;;;;;;;;;;;;;32.82;11.66;93014.88;2057958;69;20050;-75
2023/04/10 11:21:15;;;;;;;;;;;;;;;37.02;9.25;93015.03;2058089;69;20116;-78
2023/04/10 11:24:00;;;;;;;;;;;;;;;36.90;9.81;93008.06;2058323;69;20074;-75
2023/04/10 11:26:32;;;;;;;;;;;;;;;37.23;10.51;93009.16;2058489;69;20073;-80
2023/04/10 11:28:59;;;;;;;;;;;;;;;38.50;8.98;93005.16;2057794;69;20497;-79
2023/04/10 11:31:25;;;;;;;;;;;;;;;31.23;10.93;92979.38;2054493;69;20089;-79
2023/04/10 11:33:57;;;;;;;;;;;;;;;36.11;10.03;92987.91;2058082;69;20201;-78
2023/04/10 11:36:23;;;;;;;;;;;;;;;35.46;9.45;92983.25;2058015;69;20430;-79
2023/04/10 11:39:09;;;;;;;;;;;;;;;37.56;10.22;92979.34;2058103;69;20053;-76
2023/04/10 11:41:38;;;;;;;;;;;;;;;37.87;8.16;92987.75;2057679;69;20050;-76
2023/04/10 11:44:05;;;;;;;;;;;;;;;38.27;8.19;92976.63;2061199;69;20050;-74
2023/04/10 11:46:30;;;;;;;;;;;;;;;37.11;8.60;92967.03;2060702;69;20054;-77
2023/04/10 11:48:57;;;;;;;;;;;;;;;33.93;10.89;92952.81;2058388;69;20107;-77
2023/04/10 11:51:23;;;;;;;;;;;;;;;35.90;9.13;92949.72;2058056;69;20050;-79
2023/04/10 11:54:02;;;;;;;;;;;;;;;36.96;8.98;92954.34;2057985;69;20046;-79
2023/04/10 11:56:28;;;;;;;;;;;;;;;39.59;9.18;92946.78;2058086;69;20050;-78
2023/04/10 11:58:55;;;;;;;;;;;;;;;36.11;8.74;92946.19;2057834;69;20482;-78
2023/04/10 12:01:21;;;;;;;;;;;;;;;36.67;9.39;92939.22;2057837;69;20052;-79
2023/04/10 12:03:47;;;;;;;;;;;;;;;36.60;7.64;92932.84;2057973;69;20200;-79
2023/04/10 12:06:13;;;;;;;;;;;;;;;39.69;8.84;92941.97;2058060;69;20066;-78
2023/04/10 12:08:40;;;;;;;;;;;;;;;41.42;8.25;92933.44;2058124;69;20053;-78
2023/04/10 12:11:06;;;;;;;;;;;;;;;37.30;7.69;92931.84;2057912;69;20053;-78
2023/04/10 12:13:31;;;;;;;;;;;;;;;37.84;9.39;92925.41;2057829;69;20216;-76
2023/04/10 12:15:59;;;;;;;;;;;;;;;41.02;8.33;92927.41;2054221;69;20539;-76
2023/04/10 12:18:25;;;;;;;;;;;;;;;41.46;8.12;92929.56;2057928;69;20054;-75
2023/04/10 12:20:55;;;;;;;;;;;;;;;42.76;7.35;92933.44;2057902;69;20050;-76
2023/04/10 12:23:21;;;;;;;;;;;;;;;43.05;7.23;92924.31;2057790;69;20422;-75
2023/04/10 12:25:46;;;;;;;;;;;;;;;43.03;7.23;92933.34;2057814;69;20242;-77
2023/04/10 12:28:21;;;;;;;;;;;;;;;38.61;7.31;92912.75;2057821;69;20057;-77
2023/04/10 12:30:47;;;;;;;;;;;;;;;39.49;7.05;92908.94;2057416;69;20058;-77
2023/04/10 12:33:13;;;;;;;;;;;;;;;40.33;7.13;92905.72;2057885;69;20054;-78
2023/04/10 12:35:39;;;;;;;;;;;;;;;41.45;8.17;92911.13;2054612;69;20130;-78
2023/04/10 12:38:04;;;;;;;;;;;;;;;41.74;7.75;92909.56;2058450;69;20411;-77
2023/04/10 12:40:31;;;;;;;;;;;;;;;44.39;7.18;92917.50;2059867;69;20054;-76
2023/04/10 12:42:57;;;;;;;;;;;;;;;41.96;6.36;92914.25;2059965;69;20053;-77
2023/04/10 12:45:40;;;;;;;;;;;;;;;41.54;7.19;92908.44;2058639;69;20129;-76
2023/04/10 12:48:06;;;;;;;;;;;;;;;36.46;9.01;92895.94;2055222;69;20062;-78
2023/04/10 12:50:31;;;;;;;;;;;;;;;42.11;6.75;92905.31;2058280;69;20043;-74
2023/04/10 12:53:05;;;;;;;;;;;;;;;43.13;6.99;92911.28;2058436;69;20435;-76
2023/04/10 12:55:32;;;;;;;;;;;;;;;43.30;6.68;92899.13;2058256;69;20070;-77
2023/04/10 12:58:15;;;;;;;;;;;;;;;43.74;6.64;92903.84;2058171;69;20042;-75
2023/04/10 13:00:40;;;;;;;;;;;;;;;43.37;6.84;92888.34;2054879;69;20075;-75
2023/04/10 13:03:07;;;;;;;;;;;;;;;42.64;6.66;92890.47;2058270;69;20073;-75
2023/04/10 13:09:01;;;;;;;;;;;;;;;48.42;5.64;92892.59;2058282;69;20044;-75
2023/04/10 13:11:26;;;;;;;;;;;;;;;47.19;4.68;92885.91;2058484;69;20130;-75
2023/04/10 13:13:51;;;;;;;;;;;;;;;47.65;6.13;92887.53;2058854;69;20058;-76
2023/04/10 13:16:17;;;;;;;;;;;;;;;46.10;4.93;92879.06;2058183;69;20086;-77
2023/04/10 13:18:42;;;;;;;;;;;;;;;47.45;5.65;92883.16;2058205;69;20145;-76
2023/04/10 13:24:37;;;;;;;;;;;;;;;48.09;4.87;92879.59;2058179;69;20088;-75
2023/04/10 13:27:02;;;;;;;;;;;;;;;46.37;6.14;92871.16;2058290;69;20054;-75
2023/04/10 13:32:56;;;;;;;;;;;;;;;42.26;5.86;92846.09;2050201;69;20437;-75
2023/04/10 13:35:21;;;;;;;;;;;;;;;41.37;6.45;92840.66;2060045;69;20042;-76
2023/04/10 13:37:47;;;;;;;;;;;;;;;39.02;6.88;92828.63;2058267;69;20053;-76
2023/04/10 13:40:12;;;;;;;;;;;;;;;39.37;7.14;92830.00;2058258;69;20510;-75
2023/04/10 13:42:38;;;;;;;;;;;;;;;41.52;6.26;92837.66;2058446;69;20467;-76
2023/04/10 13:45:03;;;;;;;;;;;;;;;44.75;6.04;92842.44;2058306;69;20054;-75
2023/04/10 13:47:29;;;;;;;;;;;;;;;46.29;5.85;92845.72;2058242;69;20046;-80
2023/04/10 13:49:54;;;;;;;;;;;;;;;41.97;7.34;92829.97;2058382;69;20050;-78